Flight Track Log - Related Links

Times and Time Zones

All times are in EDT time to prevent confusion due to time zone crossing. See the N9029R flight status page for this flight to view local times or setup timezone preferences in your user account.

Time Position Orientation Groundspeed Altitude Reporting Facility
EDT Latitude Longitude Course Direction KTS MPH feet Rate Location/Type
Sat 07:15:14 PM 29.7614 -94.8861 344° North 209 241 1,900  Level Houston Center
Sat 07:15:38 PM 29.7831 -94.8931 344° North 206 237 2,000 212 Climbing Houston Center
Sat 07:16:39 PM 29.8317 -94.9183 336° Northwest 189 217 2,200 191 Climbing Houston Center
Sat 07:17:12 PM 29.8533 -94.9275 340° North 192 221 2,300 295 Climbing Houston Center
Sat 07:17:40 PM 29.8781 -94.9417 334° Northwest 172 198 2,500 290 Climbing Houston Center
Sat 07:18:14 PM 29.8961 -94.9500 338° Northwest 182 209 2,600 197 Climbing Houston Center
Sat 07:18:41 PM 29.9186 -94.9703 322° Northwest 174 200 2,700 197 Climbing Houston Center
Sat 07:19:15 PM 29.9328 -94.9839 320° Northwest 173 199 2,800 295 Climbing Houston Center
Sat 07:19:42 PM 29.9556 -95.0067 319° Northwest 175 201 3,000 492 Climbing Houston Center
Sat 07:20:16 PM 29.9781 -95.0303 318° Northwest 181 208 3,300 600 Climbing Houston Center
Sat 07:20:42 PM 29.9953 -95.0500 315° West 193 222 3,600 677 Climbing Houston Center
Sat 07:21:18 PM 30.0172 -95.0722 319° Northwest 191 220 4,000 689 Climbing Houston Center
Sat 07:21:43 PM 30.0350 -95.0908 318° Northwest 195 224 4,300 689 Climbing Houston Center
Sat 07:22:19 PM 30.0575 -95.1136 319° Northwest 193 222 4,700 590 Climbing Houston Center
Sat 07:22:44 PM 30.0767 -95.1342 317° Northwest 190 219 4,900 194 Climbing Houston Center
Sat 07:23:21 PM 30.0961 -95.1544 318° Northwest 190 219 4,900  Level Houston Center
Sat 07:23:39 PM 30.1117 -95.1708 318° Northwest 191 220 4,900  Level Houston Center
Sat 07:24:22 PM 30.1353 -95.1964 317° Northwest 191 220 4,900  Level Houston Center
Sat 07:24:41 PM 30.1514 -95.2142 316° Northwest 194 223 4,900  Level Houston Center
Sat 07:25:23 PM 30.1725 -95.2394 314° West 191 220 4,900  Level Houston Center
Sat 07:25:42 PM 30.1892 -95.2603 313° West 192 221 4,900  Level Houston Center
Sat 07:26:25 PM 30.1997 -95.2919 291° West 192 221 4,900  Level Houston Center
Sat 07:26:43 PM 30.2053 -95.3189 283° West 191 220 4,900  Level Houston Center
Sat 07:27:26 PM 30.2147 -95.3497 290° West 189 217 4,900  Level Houston Center
Sat 07:27:44 PM 30.2211 -95.3797 284° West 191 220 4,900  Level Houston Center
Sat 07:28:27 PM 30.2328 -95.4197 289° West 190 219 4,900  Level Houston Center
Sat 07:28:45 PM 30.2369 -95.4383 285° West 191 220 4,900  Level Houston Center
Sat 07:29:29 PM 30.2492 -95.4789 289° West 193 222 4,900  Level Houston Center
Sat 07:29:46 PM 30.2489 -95.4997 269° West 195 224 4,900  Level Houston Center
Sat 07:30:30 PM 30.2494 -95.5408 271° West 193 222 4,900  Level Houston Center
Sat 07:30:47 PM 30.2458 -95.5606 258° West 189 217 4,900  Level Houston Center
Sat 07:31:31 PM 30.2461 -95.6011 270° West 187 215 4,900  Level Houston Center
Sat 07:31:48 PM 30.2433 -95.6261 263° West 191 220 4,900 97 Level Houston Center
Sat 07:32:33 PM 30.2422 -95.6622 268° West 190 219 5,000 197 Climbing Houston Center
Sat 07:32:49 PM 30.2406 -95.6869 266° West 190 219 5,100 779 Climbing Houston Center
Sat 07:33:50 PM 30.2369 -95.7431 266° West 171 197 6,000 792 Climbing Houston Center
Sat 07:34:35 PM 30.2356 -95.7750 267° West 172 198 6,500 787 Climbing Houston Center
Sat 07:34:51 PM 30.2333 -95.7967 263° West 168 193 6,800 677 Climbing Houston Center
Sat 07:35:37 PM 30.2267 -95.8275 256° West 168 193 7,200 787 Climbing Houston Center
Sat 07:35:52 PM 30.2211 -95.8489 253° West 168 193 7,600 689 Climbing Houston Center
Sat 07:36:38 PM 30.2122 -95.8900 256° West 168 193 7,900 295 Climbing Houston Center
Sat 07:36:53 PM 30.2092 -95.9058 257° West 172 198 7,900  Level Houston Center
Sat 07:37:39 PM 30.2014 -95.9442 257° West 171 197 7,900  Level Houston Center
Sat 07:37:54 PM 30.1969 -95.9578 249° West 171 197 7,900  Level Houston Center
Sat 07:38:40 PM 30.1872 -95.9911 251° West 159 183 7,900  Level Houston Center
Sat 07:38:56 PM 30.1778 -96.0036 229° Southwest 154 177 7,900  Level Houston Center
Sat 07:39:42 PM 30.1600 -96.0272 229° Southwest 152 175 7,900  Level Houston Center
Sat 07:39:56 PM 30.1494 -96.0383 222° Southwest 154 177 7,900  Level Houston Center
Sat 07:40:43 PM 30.1258 -96.0581 216° Southwest 155 178 7,900  Level Houston Center
Sat 07:40:57 PM 30.1119 -96.0667 208° Southwest 151 174 7,900  Level Houston Center
Sat 07:41:44 PM 30.0900 -96.0839 214° Southwest 151 174 7,900  Level Houston Center
Sat 07:41:59 PM 30.0769 -96.0994 226° Southwest 159 183 7,900  Level Houston Center
Sat 07:42:45 PM 30.0558 -96.1200 220° Southwest 163 188 7,900  Level Houston Center
Sat 07:42:59 PM 30.0422 -96.1347 223° Southwest 167 192 7,900  Level Houston Center
Sat 07:43:47 PM 30.0200 -96.1569 221° Southwest 170 196 7,900  Level Houston Center
Sat 07:44:48 PM 29.9786 -96.1908 215° Southwest 184 212 7,900 590 Level Houston Center
Sat 07:45:49 PM 29.9200 -96.2147 199° South 186 214 9,100 1,328 Climbing Houston Center
Sat 07:46:50 PM 29.9106 -96.2622 257° West 150 173 10,600 1,220 Climbing Houston Center
Sat 07:47:52 PM 29.9050 -96.3119 263° West 155 178 11,600 976 Climbing Houston Center
Sat 07:48:53 PM 29.9017 -96.3639 266° West 161 185 12,600 984 Climbing Houston Center
Sat 07:49:54 PM 29.8956 -96.4147 262° West 160 184 13,600 787 Climbing Houston Center
Sat 07:50:55 PM 29.8869 -96.4667 259° West 166 191 14,200 639 Climbing Houston Center
Sat 07:51:56 PM 29.8764 -96.5214 257° West 174 200 14,900 634 Climbing Houston Center
Sat 07:52:58 PM 29.8669 -96.5783 259° West 180 207 15,500 537 Climbing Houston Center
Sat 07:53:59 PM 29.8569 -96.6342 258° West 178 205 16,000 246 Climbing Houston Center
Sat 07:55:00 PM 29.8431 -96.7075 258° West 192 221 16,000  Level Houston Center
Sat 07:56:01 PM 29.8289 -96.7714 256° West 204 235 16,000  Level Houston Center
Sat 07:57:03 PM 29.8119 -96.8342 253° West 206 237 16,000  Level Houston Center
Sat 07:58:04 PM 29.7944 -96.8969 252° West 206 237 16,000  Level Houston Center
Sat 07:59:05 PM 29.7783 -96.9592 253° West 205 236 16,000  Level Houston Center
Sat 08:00:06 PM 29.7692 -97.0244 261° West 207 238 16,000  Level Houston Center
Sat 08:01:07 PM 29.7756 -97.0919 276° West 212 244 16,000  Level Houston Center
Sat 08:02:09 PM 29.7964 -97.1558 291° West 214 246 16,000  Level Houston Center
Sat 08:03:10 PM 29.8253 -97.2306 294° West 214 246 16,000  Level Houston Center
Sat 08:04:11 PM 29.8514 -97.2939 295° West 218 251 16,000  Level Houston Center
Sat 08:05:12 PM 29.8756 -97.3564 294° West 216 249 16,000  Level Houston Center
Sat 08:06:13 PM 29.9058 -97.4189 299° West 222 255 16,000  Level Houston Center
Sat 08:07:14 PM 29.9539 -97.4658 320° Northwest 230 265 16,000  Level Houston Center
Sat 08:08:15 PM 30.0131 -97.4972 335° Northwest 234 269 16,000  Level Houston Center
Sat 08:09:16 PM 30.0731 -97.5258 338° Northwest 234 269 16,000  Level Houston Center
Sat 08:10:18 PM 30.1322 -97.5544 337° Northwest 235 270 16,000  Level Houston Center
Sat 08:11:19 PM 30.2025 -97.5919 335° Northwest 236 272 16,000  Level Houston Center
Sat 08:12:20 PM 30.2653 -97.6167 341° North 236 272 16,000  Level Houston Center
Sat 08:13:21 PM 30.3311 -97.6414 342° North 243 280 16,000  Level Houston Center
Sat 08:14:22 PM 30.3953 -97.6639 343° North 239 275 16,000  Level Houston Center
Sat 08:15:23 PM 30.4564 -97.6914 339° North 235 270 16,000  Level Houston Center
Sat 08:16:24 PM 30.5094 -97.7369 324° Northwest 233 268 16,000  Level Houston Center
Sat 08:17:25 PM 30.5608 -97.7831 322° Northwest 231 266 16,000  Level Houston Center
Sat 08:18:26 PM 30.6164 -97.8208 330° Northwest 230 265 16,000  Level Houston Center
Sat 08:19:27 PM 30.6706 -97.8597 328° Northwest 227 261 16,000  Level Houston Center
Sat 08:20:28 PM 30.7281 -97.8914 335° Northwest 225 259 16,000  Level Houston Center
Sat 08:21:29 PM 30.7925 -97.8939 358° North 229 264 16,000  Level Houston Center
Sat 08:22:30 PM 30.8589 -97.8894 North 232 267 16,000  Level Houston Center
Sat 08:23:31 PM 30.9256 -97.8811 North 236 272 16,000  Level Houston Center
Sat 08:24:32 PM 30.9914 -97.8692 North 237 273 16,000  Level Houston Center
Sat 08:25:06 PM 31.0225 -97.8642 North 233 268 16,000  Level Fort Worth Center
Sat 08:26:06 PM 31.0894 -97.8525 North 233 268 16,000  Level Fort Worth Center
Sat 08:27:06 PM 31.1583 -97.8308 15° North 238 274 16,000  Level Fort Worth Center
Sat 08:28:06 PM 31.2231 -97.8092 16° North 238 274 16,000  Level Fort Worth Center
Sat 08:29:06 PM 31.2858 -97.7853 18° North 238 274 16,000  Level Fort Worth Center
Sat 08:30:06 PM 31.3506 -97.7661 14° North 243 280 16,000  Level Fort Worth Center
Sat 08:31:06 PM 31.4175 -97.7444 15° North 238 274 16,000  Level Fort Worth Center
Sat 08:32:06 PM 31.4822 -97.7228 16° North 243 280 16,000  Level Fort Worth Center
Sat 08:33:06 PM 31.5469 -97.7033 14° North 243 280 16,000  Level Fort Worth Center
Sat 08:34:05 PM 31.6075 -97.6842 15° North 243 280 16,000  Level Fort Worth Center
Sat 08:35:06 PM 31.6744 -97.6647 14° North 243 280 16,000 -50 Level Fort Worth Center
Sat 08:36:05 PM 31.7372 -97.6456 15° North 238 274 15,900 -403 Descending Fort Worth Center
Sat 08:37:05 PM 31.8081 -97.6236 15° North 246 283 15,200 -843 Descending Fort Worth Center
Sat 08:38:06 PM 31.8792 -97.6017 15° North 258 297 14,200 -1,190 Descending Fort Worth Center
Sat 08:39:06 PM 31.9522 -97.5797 14° North 263 303 12,800 -1,400 Descending Fort Worth Center
Sat 08:40:06 PM 32.0233 -97.5581 14° North 263 303 11,400 -1,450 Descending Fort Worth Center
Sat 08:41:06 PM 32.0983 -97.5336 15° North 257 296 9,900 -1,300 Descending Fort Worth Center
Sat 08:42:06 PM 32.1611 -97.5189 11° North 257 296 8,800 -1,210 Descending Fort Worth Center
Sat 08:43:05 PM 32.2342 -97.4969 14° North 257 296 7,500 -1,250 Descending Fort Worth Center
Sat 08:44:06 PM 32.2947 -97.4772 15° North 252 290 6,300 -1,190 Descending Fort Worth Center
Sat 08:45:06 PM 32.3489 -97.4158 44° Northeast 242 278 5,100 -650 Descending Fort Worth Center
Sat 08:46:06 PM 32.3594 -97.3494 79° East 227 261 5,000 -50 Descending Fort Worth Center
Sat 08:47:05 PM 32.3719 -97.2756 79° East 215 247 5,000  Level Fort Worth Center
Sat 08:48:05 PM 32.3803 -97.2167 80° East 210 242 5,000  Level Fort Worth Center
Sat 08:49:06 PM 32.3906 -97.1453 80° East 204 235 5,000  Level Fort Worth Center
Sat 08:50:06 PM 32.3986 -97.0814 81° East 204 235 5,000  Level Fort Worth Center
Sat 08:51:06 PM 32.4111 -97.0075 79° East 204 235 5,000  Level Fort Worth Center
Sat 08:52:06 PM 32.4256 -96.9483 74° East 204 235 5,000  Level Fort Worth Center
Sat 08:53:06 PM 32.4461 -96.8792 71° East 204 235 5,000 -300 Level Fort Worth Center
Sat 08:54:06 PM 32.4686 -96.8200 66° East 199 229 4,400 -700 Descending Fort Worth Center
Sat 08:55:06 PM 32.4831 -96.7681 72° East 188 216 3,600 -700 Descending Fort Worth Center
Sat 08:56:06 PM 32.5036 -96.7114 67° East 178 205 3,000 -219 Descending Fort Worth Center
Sat 08:58:18 PM 32.5333 -96.6000 72° East 144 166 2,900 -31 Descending Dallas / Fort Worth TRACON
Sat 08:59:19 PM 32.5500 -96.5667 59° Northeast 150 173 2,900 -100 Level Dallas / Fort Worth TRACON
Sat 09:00:18 PM 32.5833 -96.5333 40° Northeast 143 165 2,700 -450 Descending Dallas / Fort Worth TRACON
Sat 09:01:19 PM 32.6167 -96.5333 360° North 140 161 2,000 -689 Descending Dallas / Fort Worth TRACON

Login

Don't have an account? Register now (free) for customized features, flight alerts, and more!